Time;durP1;ratioP1;P1;durP2;ratioP2;P2;SDS_P1;SDS_P2;PMS_P1;PMS_P2;Temp;Humidity;BMP_temperature;BMP_pressure;BME280_temperature;BME280_humidity;BME280_pressure;Samples;Min_cycle;Max_cycle;Signal;HPM_P1;HPM_P2
2023/06/30 00:01:48;;;;;;;22.73;3.83;;;;;;;;;;5044213;28;20493;-53
2023/06/30 00:04:19;;;;;;;26.25;4.05;;;;;;;;;;5045859;28;20119;-53
2023/06/30 00:06:50;;;;;;;28.50;4.45;;;;;;;;;;5036779;28;20025;-60
2023/06/30 00:09:21;;;;;;;22.30;5.07;;;;;;;;;;5036550;28;20434;-56
2023/06/30 00:11:50;;;;;;;26.40;6.22;;;;;;;;;;5051896;28;20486;-57
2023/06/30 00:14:18;;;;;;;30.15;7.07;;;;;;;;;;5045285;28;20025;-54
2023/06/30 00:16:46;;;;;;;37.60;7.88;;;;;;;;;;5053440;28;20036;-51
2023/06/30 00:19:13;;;;;;;27.17;7.28;;;;;;;;;;5046999;28;20036;-58
2023/06/30 00:21:41;;;;;;;27.42;7.95;;;;;;;;;;5053502;28;20055;-54
2023/06/30 00:24:10;;;;;;;37.90;9.43;;;;;;;;;;5052779;28;20461;-51
2023/06/30 00:26:38;;;;;;;35.58;8.85;;;;;;;;;;5053083;28;20017;-57
2023/06/30 00:29:05;;;;;;;46.75;11.82;;;;;;;;;;5047834;28;20462;-51
2023/06/30 00:31:32;;;;;;;52.58;11.10;;;;;;;;;;5043270;28;20474;-54
2023/06/30 00:33:59;;;;;;;44.88;11.02;;;;;;;;;;5042485;28;20086;-55
2023/06/30 00:36:28;;;;;;;44.05;10.68;;;;;;;;;;5033001;28;20025;-53
2023/06/30 00:38:56;;;;;;;60.05;12.18;;;;;;;;;;5043398;28;20067;-57
2023/06/30 00:41:23;;;;;;;57.08;14.43;;;;;;;;;;5053083;28;20033;-57
2023/06/30 00:43:50;;;;;;;49.83;13.63;;;;;;;;;;5052982;28;20033;-54
2023/06/30 00:46:19;;;;;;;67.10;15.93;;;;;;;;;;5052140;28;20029;-57
2023/06/30 00:48:46;;;;;;;69.70;18.83;;;;;;;;;;5053168;28;20025;-57
2023/06/30 00:51:14;;;;;;;73.30;17.98;;;;;;;;;;5052765;28;20471;-54
2023/06/30 00:53:41;;;;;;;73.28;18.85;;;;;;;;;;5052839;28;20116;-53
2023/06/30 00:56:08;;;;;;;67.55;19.58;;;;;;;;;;5052864;28;20028;-53
2023/06/30 00:58:35;;;;;;;64.32;18.15;;;;;;;;;;5052942;28;20025;-50
2023/06/30 01:01:11;;;;;;;66.35;17.80;;;;;;;;;;5052733;28;20375;-56
2023/06/30 01:03:47;;;;;;;66.68;18.05;;;;;;;;;;5052495;28;20103;-52
2023/06/30 01:06:46;;;;;;;64.38;17.77;;;;;;;;;;5051622;28;20029;-57
2023/06/30 01:09:19;;;;;;;62.75;17.58;;;;;;;;;;5027044;28;20119;-53
2023/06/30 01:11:47;;;;;;;54.42;17.25;;;;;;;;;;5052691;28;20029;-50
2023/06/30 01:14:16;;;;;;;60.85;16.95;;;;;;;;;;5052017;28;20028;-56
2023/06/30 01:16:44;;;;;;;58.38;16.83;;;;;;;;;;5052542;28;20033;-53
2023/06/30 01:19:15;;;;;;;58.45;16.63;;;;;;;;;;5052483;28;20025;-57
2023/06/30 01:21:43;;;;;;;60.50;17.35;;;;;;;;;;5052498;28;20033;-55
2023/06/30 01:24:12;;;;;;;60.00;16.77;;;;;;;;;;5052043;28;20064;-56
2023/06/30 01:26:40;;;;;;;56.10;15.13;;;;;;;;;;5052202;28;20033;-53
2023/06/30 01:29:07;;;;;;;51.58;14.75;;;;;;;;;;5051728;28;20123;-50
2023/06/30 01:31:34;;;;;;;53.05;14.82;;;;;;;;;;5052359;28;20017;-48
2023/06/30 01:34:02;;;;;;;56.40;14.52;;;;;;;;;;5051990;28;20025;-51
2023/06/30 01:36:29;;;;;;;49.88;14.43;;;;;;;;;;5051930;28;20025;-57
2023/06/30 01:38:56;;;;;;;54.22;14.93;;;;;;;;;;5057913;28;20029;-57
2023/06/30 01:41:23;;;;;;;51.33;14.50;;;;;;;;;;5051841;28;20033;-57
2023/06/30 01:43:51;;;;;;;65.40;16.13;;;;;;;;;;5051883;28;20036;-56
2023/06/30 01:46:18;;;;;;;57.63;15.02;;;;;;;;;;5051861;28;20033;-51
2023/06/30 01:48:47;;;;;;;50.80;13.55;;;;;;;;;;5051670;28;20455;-58
2023/06/30 01:51:14;;;;;;;45.60;13.13;;;;;;;;;;5036905;28;20021;-54
2023/06/30 01:53:41;;;;;;;50.08;13.52;;;;;;;;;;5045778;28;20426;-50
2023/06/30 01:56:08;;;;;;;47.72;13.00;;;;;;;;;;5051290;28;20561;-50
2023/06/30 01:58:35;;;;;;;47.25;12.07;;;;;;;;;;5048774;28;20049;-56
2023/06/30 02:01:02;;;;;;;43.05;11.93;;;;;;;;;;5050506;28;20021;-58
2023/06/30 02:03:29;;;;;;;43.78;12.85;;;;;;;;;;5050568;28;20130;-54
2023/06/30 02:05:57;;;;;;;41.40;11.27;;;;;;;;;;5050567;28;20086;-59
2023/06/30 02:08:24;;;;;;;45.70;12.25;;;;;;;;;;5050579;28;20118;-54
2023/06/30 02:10:51;;;;;;;44.10;11.13;;;;;;;;;;5050410;28;20120;-59
2023/06/30 02:13:18;;;;;;;50.75;11.90;;;;;;;;;;5049188;28;20123;-55
2023/06/30 02:15:45;;;;;;;38.83;11.20;;;;;;;;;;5050334;28;20516;-54
2023/06/30 02:18:13;;;;;;;38.72;11.63;;;;;;;;;;5050137;28;20052;-51
2023/06/30 02:20:40;;;;;;;44.53;10.70;;;;;;;;;;5050445;28;20029;-57
2023/06/30 02:23:07;;;;;;;39.10;10.68;;;;;;;;;;5050110;28;20057;-55
2023/06/30 02:25:34;;;;;;;39.78;10.85;;;;;;;;;;5048446;28;20059;-57
2023/06/30 02:28:01;;;;;;;35.58;10.00;;;;;;;;;;5048937;28;20055;-56
2023/06/30 02:30:28;;;;;;;37.58;9.93;;;;;;;;;;5050770;28;20436;-55
2023/06/30 02:32:55;;;;;;;33.35;9.85;;;;;;;;;;5051607;28;20033;-55
2023/06/30 02:35:22;;;;;;;37.58;9.68;;;;;;;;;;5051496;28;20029;-54
2023/06/30 02:37:50;;;;;;;35.22;9.77;;;;;;;;;;5051481;28;20033;-53
2023/06/30 02:40:17;;;;;;;31.08;8.75;;;;;;;;;;5051488;28;20039;-50
2023/06/30 02:42:44;;;;;;;30.40;9.73;;;;;;;;;;5051428;28;20533;-55
2023/06/30 02:45:11;;;;;;;31.13;9.23;;;;;;;;;;5051452;28;20104;-53
2023/06/30 02:47:40;;;;;;;38.97;9.18;;;;;;;;;;5051540;28;20024;-54
2023/06/30 02:50:07;;;;;;;27.52;8.60;;;;;;;;;;5051334;28;20376;-52
2023/06/30 02:52:34;;;;;;;31.33;8.80;;;;;;;;;;5051396;28;20487;-55
2023/06/30 02:55:01;;;;;;;31.45;9.10;;;;;;;;;;5051382;28;20064;-54
2023/06/30 02:57:28;;;;;;;26.83;8.55;;;;;;;;;;5051431;28;20499;-55
2023/06/30 02:59:55;;;;;;;30.25;9.27;;;;;;;;;;5051365;28;20036;-54
2023/06/30 03:02:22;;;;;;;26.92;8.20;;;;;;;;;;5051379;28;20036;-55
2023/06/30 03:04:49;;;;;;;29.98;8.30;;;;;;;;;;5051223;28;20491;-54
2023/06/30 03:07:16;;;;;;;25.60;7.47;;;;;;;;;;5051348;28;20033;-54
2023/06/30 03:09:45;;;;;;;26.42;7.60;;;;;;;;;;5051979;28;20029;-53
2023/06/30 03:12:12;;;;;;;24.13;7.68;;;;;;;;;;5055247;28;20509;-53
2023/06/30 03:14:39;;;;;;;24.08;7.82;;;;;;;;;;5055057;28;20170;-54
2023/06/30 03:17:06;;;;;;;27.80;7.78;;;;;;;;;;5055392;28;20032;-55
2023/06/30 03:19:33;;;;;;;20.58;7.30;;;;;;;;;;5055167;28;20025;-54
2023/06/30 03:22:00;;;;;;;27.15;7.75;;;;;;;;;;5054998;28;20028;-56
2023/06/30 03:24:27;;;;;;;21.35;6.65;;;;;;;;;;5054798;28;20049;-59
2023/06/30 03:26:54;;;;;;;22.98;6.88;;;;;;;;;;5055008;28;20086;-56
2023/06/30 03:29:21;;;;;;;22.92;7.20;;;;;;;;;;5054970;28;20020;-55
2023/06/30 03:31:48;;;;;;;21.35;7.32;;;;;;;;;;5054974;28;20025;-59
2023/06/30 03:34:15;;;;;;;23.15;6.50;;;;;;;;;;5060696;28;20028;-53
2023/06/30 03:36:42;;;;;;;23.48;7.30;;;;;;;;;;5074845;28;20103;-54
2023/06/30 03:39:09;;;;;;;22.52;6.95;;;;;;;;;;5074757;28;20529;-53
2023/06/30 03:41:36;;;;;;;20.05;5.53;;;;;;;;;;5074589;28;20051;-54
2023/06/30 03:44:03;;;;;;;21.30;6.47;;;;;;;;;;5073149;28;20020;-54
2023/06/30 03:46:30;;;;;;;16.55;6.43;;;;;;;;;;5074642;28;20359;-53
2023/06/30 03:48:57;;;;;;;20.30;6.93;;;;;;;;;;5074649;28;20667;-54
2023/06/30 03:51:24;;;;;;;24.63;7.18;;;;;;;;;;5074579;28;20086;-52
2023/06/30 03:53:51;;;;;;;17.92;5.70;;;;;;;;;;5074389;28;20048;-50
2023/06/30 03:56:18;;;;;;;21.48;6.60;;;;;;;;;;5074505;28;20032;-53
2023/06/30 03:58:45;;;;;;;17.40;5.60;;;;;;;;;;5074489;28;20355;-54
2023/06/30 04:01:12;;;;;;;16.13;5.53;;;;;;;;;;5074327;28;20099;-54
2023/06/30 04:03:39;;;;;;;15.43;5.72;;;;;;;;;;5074319;28;20028;-52
2023/06/30 04:06:06;;;;;;;18.67;5.28;;;;;;;;;;5074282;28;20028;-55
2023/06/30 04:08:33;;;;;;;17.58;5.47;;;;;;;;;;5074236;28;20020;-55
2023/06/30 04:11:00;;;;;;;14.07;5.28;;;;;;;;;;5074218;28;20057;-55
2023/06/30 04:13:27;;;;;;;14.98;5.15;;;;;;;;;;5074077;28;20020;-55
2023/06/30 04:15:54;;;;;;;16.25;5.03;;;;;;;;;;5074137;28;20109;-54
2023/06/30 04:18:21;;;;;;;14.85;4.82;;;;;;;;;;5074134;28;20474;-54
2023/06/30 04:20:48;;;;;;;18.08;5.20;;;;;;;;;;5073764;28;20063;-52
2023/06/30 04:23:15;;;;;;;14.13;4.70;;;;;;;;;;5071591;28;20139;-53
2023/06/30 04:25:42;;;;;;;18.88;4.75;;;;;;;;;;5073999;28;20025;-55
2023/06/30 04:28:09;;;;;;;13.23;4.88;;;;;;;;;;5073935;28;20040;-53
2023/06/30 04:30:36;;;;;;;15.10;4.63;;;;;;;;;;5073713;28;20383;-52
2023/06/30 04:33:03;;;;;;;14.80;4.72;;;;;;;;;;5073648;28;20055;-55
2023/06/30 04:35:31;;;;;;;13.93;4.70;;;;;;;;;;5073446;28;20039;-52
2023/06/30 04:37:58;;;;;;;11.45;3.97;;;;;;;;;;5073541;28;20476;-53
2023/06/30 04:40:25;;;;;;;12.18;4.30;;;;;;;;;;5073503;28;20375;-53
2023/06/30 04:42:52;;;;;;;13.68;4.30;;;;;;;;;;5073570;28;20031;-54
2023/06/30 04:45:19;;;;;;;14.63;4.82;;;;;;;;;;5073545;28;20078;-53
2023/06/30 04:47:46;;;;;;;11.32;4.53;;;;;;;;;;5073516;28;20029;-50
2023/06/30 04:50:13;;;;;;;11.50;4.22;;;;;;;;;;5073502;28;20040;-54
2023/06/30 04:52:40;;;;;;;13.50;4.13;;;;;;;;;;5073467;28;20097;-54
2023/06/30 04:55:07;;;;;;;13.82;4.20;;;;;;;;;;5073317;28;20024;-52
2023/06/30 04:57:34;;;;;;;11.98;4.18;;;;;;;;;;5073291;28;20028;-53
2023/06/30 05:00:01;;;;;;;11.48;4.00;;;;;;;;;;5073289;28;20027;-52
2023/06/30 05:02:29;;;;;;;8.70;3.70;;;;;;;;;;5073042;28;20119;-54
2023/06/30 05:04:56;;;;;;;14.27;4.20;;;;;;;;;;5072933;28;20111;-52
2023/06/30 05:07:23;;;;;;;13.15;3.83;;;;;;;;;;5073157;28;20051;-55
2023/06/30 05:09:50;;;;;;;14.80;3.67;;;;;;;;;;5073074;28;20027;-50
2023/06/30 05:12:17;;;;;;;14.40;4.30;;;;;;;;;;5073067;28;20028;-53
2023/06/30 05:14:44;;;;;;;11.27;3.53;;;;;;;;;;5072934;28;20467;-53
2023/06/30 05:17:11;;;;;;;10.38;3.58;;;;;;;;;;5072913;28;20360;-55
2023/06/30 05:19:38;;;;;;;10.07;3.58;;;;;;;;;;5072879;28;20021;-55
2023/06/30 05:22:06;;;;;;;10.45;3.00;;;;;;;;;;5072753;28;20036;-53
2023/06/30 05:24:33;;;;;;;11.63;3.58;;;;;;;;;;5072487;28;20048;-53
2023/06/30 05:27:00;;;;;;;9.77;3.60;;;;;;;;;;5072781;28;20031;-52
2023/06/30 05:29:30;;;;;;;10.50;3.17;;;;;;;;;;5072715;28;20425;-53
2023/06/30 05:31:57;;;;;;;10.10;3.20;;;;;;;;;;5072478;28;20033;-55
2023/06/30 05:34:24;;;;;;;9.60;3.15;;;;;;;;;;5072398;28;20024;-54
2023/06/30 05:36:51;;;;;;;8.90;2.80;;;;;;;;;;5072524;28;20031;-55
2023/06/30 05:39:18;;;;;;;11.68;3.25;;;;;;;;;;5072456;28;20032;-54
2023/06/30 05:41:45;;;;;;;8.85;2.78;;;;;;;;;;5072368;28;20040;-54
2023/06/30 05:44:12;;;;;;;8.88;3.22;;;;;;;;;;5072306;28;20024;-56
2023/06/30 05:46:39;;;;;;;6.43;2.72;;;;;;;;;;5072365;28;20043;-52
2023/06/30 05:49:07;;;;;;;8.38;3.30;;;;;;;;;;5072278;28;20104;-54
2023/06/30 05:51:34;;;;;;;7.25;3.03;;;;;;;;;;5072226;28;20059;-55
2023/06/30 05:54:02;;;;;;;8.02;2.78;;;;;;;;;;5072157;28;20059;-50
2023/06/30 05:56:29;;;;;;;8.05;2.63;;;;;;;;;;5072202;28;20028;-51
2023/06/30 05:58:56;;;;;;;8.25;2.65;;;;;;;;;;5072179;28;20060;-55
2023/06/30 06:01:23;;;;;;;7.10;2.47;;;;;;;;;;5064963;28;20041;-53
2023/06/30 06:03:50;;;;;;;7.47;2.80;;;;;;;;;;5052025;28;20021;-52
2023/06/30 06:06:17;;;;;;;4.22;2.13;;;;;;;;;;5052040;28;20021;-51
2023/06/30 06:08:46;;;;;;;7.00;2.58;;;;;;;;;;5052010;28;20064;-54
2023/06/30 06:11:14;;;;;;;9.73;3.00;;;;;;;;;;5051869;28;20029;-54
2023/06/30 06:13:41;;;;;;;5.85;2.42;;;;;;;;;;5051855;28;20031;-55
2023/06/30 06:16:08;;;;;;;8.30;2.50;;;;;;;;;;5051864;28;20025;-54
2023/06/30 06:18:36;;;;;;;7.97;2.50;;;;;;;;;;5051879;28;20036;-50
2023/06/30 06:21:04;;;;;;;8.63;2.58;;;;;;;;;;5051734;28;20384;-53
2023/06/30 06:23:31;;;;;;;6.22;2.20;;;;;;;;;;5051446;28;20415;-53
2023/06/30 06:25:58;;;;;;;7.70;2.72;;;;;;;;;;5051780;28;20053;-53
2023/06/30 06:28:25;;;;;;;10.32;2.45;;;;;;;;;;5051676;28;20024;-55
2023/06/30 06:30:52;;;;;;;5.50;2.10;;;;;;;;;;5051674;28;20036;-53
2023/06/30 06:33:20;;;;;;;4.53;1.92;;;;;;;;;;5051516;28;20383;-54
2023/06/30 06:35:53;;;;;;;5.65;2.25;;;;;;;;;;5051567;28;20543;-54
2023/06/30 06:38:20;;;;;;;6.35;2.15;;;;;;;;;;5051556;28;20479;-56
2023/06/30 06:40:47;;;;;;;6.80;2.40;;;;;;;;;;5051553;28;20031;-57
2023/06/30 06:43:14;;;;;;;5.70;2.30;;;;;;;;;;5051397;28;20033;-57
2023/06/30 06:45:42;;;;;;;6.22;2.30;;;;;;;;;;5051027;28;20491;-59
2023/06/30 06:48:28;;;;;;;6.93;2.45;;;;;;;;;;5051552;28;20029;-58
2023/06/30 06:50:56;;;;;;;6.97;2.47;;;;;;;;;;5051412;28;20071;-59
2023/06/30 06:53:25;;;;;;;5.55;2.40;;;;;;;;;;5051356;28;20052;-58
2023/06/30 06:55:53;;;;;;;6.90;2.10;;;;;;;;;;5051321;28;20029;-57
2023/06/30 06:58:20;;;;;;;6.65;2.38;;;;;;;;;;5051441;28;20024;-57
2023/06/30 07:00:48;;;;;;;6.50;2.35;;;;;;;;;;5051412;28;20029;-57
2023/06/30 07:03:16;;;;;;;8.35;2.08;;;;;;;;;;5051179;28;20490;-56
2023/06/30 07:05:46;;;;;;;8.95;2.72;;;;;;;;;;5051352;28;20048;-58
2023/06/30 07:08:13;;;;;;;3.85;2.03;;;;;;;;;;5051375;28;20037;-58
2023/06/30 07:10:40;;;;;;;5.30;2.00;;;;;;;;;;5049948;28;20032;-58
2023/06/30 07:13:08;;;;;;;5.70;2.00;;;;;;;;;;5051217;28;20044;-55
2023/06/30 07:15:35;;;;;;;5.82;2.10;;;;;;;;;;5051179;28;20059;-58
2023/06/30 07:18:02;;;;;;;3.47;1.70;;;;;;;;;;5051249;28;20039;-57
2023/06/30 07:20:29;;;;;;;5.32;2.28;;;;;;;;;;5051226;28;20017;-57
2023/06/30 07:22:57;;;;;;;5.13;1.98;;;;;;;;;;5050736;28;20128;-56
2023/06/30 07:25:24;;;;;;;7.30;2.28;;;;;;;;;;5051136;28;20025;-57
2023/06/30 07:27:53;;;;;;;4.43;1.90;;;;;;;;;;5051125;28;20048;-55
2023/06/30 07:30:24;;;;;;;6.40;2.03;;;;;;;;;;5051135;28;20017;-57
2023/06/30 07:32:51;;;;;;;5.45;2.00;;;;;;;;;;5051123;28;20387;-57
2023/06/30 07:35:19;;;;;;;5.78;2.05;;;;;;;;;;5051037;28;20053;-58
2023/06/30 07:37:46;;;;;;;6.10;1.85;;;;;;;;;;5051054;28;20054;-56
2023/06/30 07:40:13;;;;;;;4.22;1.70;;;;;;;;;;5051032;28;20025;-57
2023/06/30 07:42:41;;;;;;;5.88;1.80;;;;;;;;;;5050903;28;20036;-56
2023/06/30 07:45:13;;;;;;;5.18;1.80;;;;;;;;;;5050833;28;20037;-58
2023/06/30 07:47:40;;;;;;;6.15;1.88;;;;;;;;;;5050959;28;20021;-59
2023/06/30 07:50:12;;;;;;;4.22;2.13;;;;;;;;;;5050994;28;20017;-56
2023/06/30 07:52:43;;;;;;;3.85;2.10;;;;;;;;;;5050851;28;20036;-56
2023/06/30 07:55:12;;;;;;;5.80;1.80;;;;;;;;;;5050859;28;20075;-56
2023/06/30 07:57:39;;;;;;;5.70;2.05;;;;;;;;;;5052825;28;20047;-57
2023/06/30 08:00:07;;;;;;;6.65;1.92;;;;;;;;;;5054443;28;20028;-56
2023/06/30 08:02:34;;;;;;;2.85;1.60;;;;;;;;;;5054351;28;20032;-59
2023/06/30 08:05:01;;;;;;;3.70;1.75;;;;;;;;;;5054278;28;20025;-57
2023/06/30 08:07:28;;;;;;;5.55;1.88;;;;;;;;;;5054352;28;20025;-57
2023/06/30 08:09:55;;;;;;;5.03;1.98;;;;;;;;;;5054300;28;20029;-55
2023/06/30 08:12:22;;;;;;;3.28;1.60;;;;;;;;;;5054307;28;20067;-57
2023/06/30 08:14:51;;;;;;;4.75;1.60;;;;;;;;;;5054105;28;20028;-58
2023/06/30 08:17:18;;;;;;;8.15;1.70;;;;;;;;;;5054115;28;20025;-59
2023/06/30 08:19:44;;;;;;;5.07;1.58;;;;;;;;;;5054057;28;20059;-56
2023/06/30 08:22:15;;;;;;;3.72;1.48;;;;;;;;;;5054018;28;20052;-57
2023/06/30 08:24:44;;;;;;;3.03;1.50;;;;;;;;;;5053745;28;20526;-57
2023/06/30 08:27:11;;;;;;;3.65;1.70;;;;;;;;;;5053985;28;20064;-60
2023/06/30 08:29:38;;;;;;;3.55;1.50;;;;;;;;;;5053918;28;20441;-58
2023/06/30 08:32:05;;;;;;;3.42;1.52;;;;;;;;;;5052735;28;20033;-57
2023/06/30 08:34:32;;;;;;;4.55;1.85;;;;;;;;;;5052333;28;20024;-56
2023/06/30 08:36:59;;;;;;;6.97;1.88;;;;;;;;;;5053730;28;20028;-56
2023/06/30 08:39:31;;;;;;;6.22;1.92;;;;;;;;;;5053715;28;20028;-56
2023/06/30 08:42:00;;;;;;;2.97;1.30;;;;;;;;;;5053840;28;20400;-58
2023/06/30 08:44:27;;;;;;;4.53;1.98;;;;;;;;;;5053444;28;20017;-57
2023/06/30 08:46:55;;;;;;;3.40;1.50;;;;;;;;;;5053581;28;20487;-57
2023/06/30 08:49:23;;;;;;;2.25;1.48;;;;;;;;;;5053512;28;20541;-57
2023/06/30 08:51:53;;;;;;;4.30;1.50;;;;;;;;;;5053404;28;20078;-51
2023/06/30 08:54:20;;;;;;;3.25;1.40;;;;;;;;;;5053322;28;20395;-53
2023/06/30 08:56:47;;;;;;;4.50;1.67;;;;;;;;;;5053308;28;20025;-53
2023/06/30 08:59:14;;;;;;;3.88;1.48;;;;;;;;;;5053337;28;20033;-53
2023/06/30 09:01:41;;;;;;;3.30;1.50;;;;;;;;;;5053177;28;20041;-54
2023/06/30 09:04:09;;;;;;;2.10;1.33;;;;;;;;;;5033292;28;20026;-55
2023/06/30 09:06:37;;;;;;;3.13;1.50;;;;;;;;;;5053104;28;20036;-53
2023/06/30 09:09:06;;;;;;;3.80;1.58;;;;;;;;;;5052646;28;20040;-51
2023/06/30 09:11:34;;;;;;;1.88;1.30;;;;;;;;;;5052472;28;20021;-52
2023/06/30 09:14:02;;;;;;;3.80;1.50;;;;;;;;;;5052526;28;20053;-58
2023/06/30 09:16:32;;;;;;;2.88;1.38;;;;;;;;;;5052698;28;20033;-56
2023/06/30 09:19:00;;;;;;;5.03;1.63;;;;;;;;;;5052535;28;20383;-57
2023/06/30 09:21:26;;;;;;;4.95;1.50;;;;;;;;;;5049682;28;20036;-54
2023/06/30 09:23:54;;;;;;;3.78;1.30;;;;;;;;;;5033143;28;20119;-57
2023/06/30 09:26:21;;;;;;;5.97;1.50;;;;;;;;;;5038009;28;20048;-57
2023/06/30 09:28:47;;;;;;;8.15;1.58;;;;;;;;;;5039289;28;20506;-56
2023/06/30 09:31:15;;;;;;;8.57;1.63;;;;;;;;;;5052240;28;20028;-57
2023/06/30 09:33:44;;;;;;;6.45;1.60;;;;;;;;;;5042074;28;20033;-52
2023/06/30 09:36:17;;;;;;;4.05;1.27;;;;;;;;;;5051714;28;20387;-50
2023/06/30 09:38:44;;;;;;;5.85;1.52;;;;;;;;;;5051920;28;20445;-56
2023/06/30 09:41:19;;;;;;;3.45;1.33;;;;;;;;;;5038353;28;20056;-55
2023/06/30 09:43:48;;;;;;;5.57;1.40;;;;;;;;;;5031217;28;20035;-54
2023/06/30 09:46:15;;;;;;;8.90;1.50;;;;;;;;;;5032415;28;20372;-56
2023/06/30 09:48:43;;;;;;;6.55;1.30;;;;;;;;;;5032446;28;20032;-54
2023/06/30 09:51:10;;;;;;;5.50;1.45;;;;;;;;;;5032426;28;20040;-56
2023/06/30 09:53:38;;;;;;;6.90;1.50;;;;;;;;;;5032291;28;20080;-57
2023/06/30 09:56:05;;;;;;;5.47;1.50;;;;;;;;;;5032372;28;20029;-57
2023/06/30 09:58:32;;;;;;;4.95;1.73;;;;;;;;;;5032195;28;20033;-57
2023/06/30 10:00:59;;;;;;;4.25;1.77;;;;;;;;;;5032266;28;20029;-55
2023/06/30 10:03:26;;;;;;;7.43;1.55;;;;;;;;;;5030774;28;20061;-62
2023/06/30 10:05:54;;;;;;;5.45;1.50;;;;;;;;;;5037856;28;20511;-58
2023/06/30 10:08:22;;;;;;;3.47;1.40;;;;;;;;;;5048474;28;20403;-60
2023/06/30 10:10:53;;;;;;;5.63;1.70;;;;;;;;;;5033584;28;20041;-60
2023/06/30 10:13:20;;;;;;;4.18;1.33;;;;;;;;;;5047439;28;20025;-61
2023/06/30 10:15:48;;;;;;;4.72;1.52;;;;;;;;;;5049895;28;20037;-56
2023/06/30 10:18:17;;;;;;;6.75;1.80;;;;;;;;;;5051806;28;20025;-60
2023/06/30 10:20:45;;;;;;;6.68;1.30;;;;;;;;;;5049484;28;20076;-56
2023/06/30 10:23:12;;;;;;;5.63;1.38;;;;;;;;;;5050915;28;20079;-52
2023/06/30 10:25:39;;;;;;;4.18;1.35;;;;;;;;;;5050064;28;20083;-52
2023/06/30 10:28:06;;;;;;;4.57;1.42;;;;;;;;;;5051375;28;20386;-56
2023/06/30 10:30:34;;;;;;;3.35;1.30;;;;;;;;;;5051708;28;20506;-54
2023/06/30 10:33:02;;;;;;;6.28;1.42;;;;;;;;;;5051445;28;20039;-48
2023/06/30 10:35:30;;;;;;;5.72;1.30;;;;;;;;;;5051660;28;20388;-53
2023/06/30 10:37:57;;;;;;;4.75;1.38;;;;;;;;;;5051602;28;20032;-52
2023/06/30 10:40:28;;;;;;;2.30;1.20;;;;;;;;;;5051630;28;20035;-48
2023/06/30 10:42:56;;;;;;;5.15;1.40;;;;;;;;;;5050972;28;20548;-49
2023/06/30 10:45:30;;;;;;;2.67;1.35;;;;;;;;;;5051316;28;20039;-50
2023/06/30 10:47:57;;;;;;;7.63;1.58;;;;;;;;;;5051262;28;20407;-51
2023/06/30 10:50:24;;;;;;;4.63;1.38;;;;;;;;;;5051390;28;20025;-48
2023/06/30 10:52:53;;;;;;;4.97;1.60;;;;;;;;;;5051379;28;20117;-51
2023/06/30 10:55:21;;;;;;;4.55;1.70;;;;;;;;;;5051417;28;20031;-48
2023/06/30 10:57:52;;;;;;;3.58;1.40;;;;;;;;;;5051315;28;20029;-49
2023/06/30 11:00:22;;;;;;;6.20;1.33;;;;;;;;;;5051459;28;20499;-50
2023/06/30 11:02:56;;;;;;;6.45;1.45;;;;;;;;;;5050892;28;20131;-49
2023/06/30 11:05:33;;;;;;;5.68;1.58;;;;;;;;;;5050950;28;20430;-46
2023/06/30 11:08:09;;;;;;;9.27;2.20;;;;;;;;;;5051134;28;20152;-49
2023/06/30 11:10:39;;;;;;;13.00;2.33;;;;;;;;;;5050978;28;20037;-49
2023/06/30 11:13:09;;;;;;;21.33;2.50;;;;;;;;;;5051006;28;20399;-46
2023/06/30 11:15:36;;;;;;;34.70;2.95;;;;;;;;;;5051028;28;20029;-56
2023/06/30 11:18:05;;;;;;;39.63;3.03;;;;;;;;;;5049810;28;20041;-53
2023/06/30 11:20:33;;;;;;;19.95;2.45;;;;;;;;;;5051040;28;20032;-55
2023/06/30 11:23:03;;;;;;;14.38;1.90;;;;;;;;;;5049954;28;20075;-56
2023/06/30 11:25:31;;;;;;;183.07;10.85;;;;;;;;;;5048183;28;20064;-48
2023/06/30 11:28:00;;;;;;;395.20;21.05;;;;;;;;;;5049081;28;20360;-48
2023/06/30 11:30:27;;;;;;;180.25;8.90;;;;;;;;;;5050376;28;20060;-52
2023/06/30 11:32:58;;;;;;;73.32;4.60;;;;;;;;;;5054040;28;20487;-46
2023/06/30 11:35:31;;;;;;;60.13;5.47;;;;;;;;;;5053817;28;20421;-48
2023/06/30 11:37:58;;;;;;;52.90;4.70;;;;;;;;;;5054499;28;20040;-49
2023/06/30 11:40:27;;;;;;;50.20;5.13;;;;;;;;;;5053200;28;20031;-50
2023/06/30 11:42:54;;;;;;;150.85;10.90;;;;;;;;;;5054246;28;20124;-46
2023/06/30 11:45:26;;;;;;;91.53;7.43;;;;;;;;;;5054456;28;20446;-47
2023/06/30 11:47:54;;;;;;;73.93;6.13;;;;;;;;;;5054665;28;20494;-48
2023/06/30 11:50:21;;;;;;;53.35;6.13;;;;;;;;;;5054287;28;20075;-47
2023/06/30 11:52:49;;;;;;;53.05;5.78;;;;;;;;;;5054353;28;20025;-47
2023/06/30 11:55:17;;;;;;;56.72;6.70;;;;;;;;;;5054322;28;20372;-47
2023/06/30 11:57:49;;;;;;;55.58;7.05;;;;;;;;;;5054302;28;20495;-52
2023/06/30 12:00:22;;;;;;;50.55;6.60;;;;;;;;;;5054246;28;20512;-52
2023/06/30 12:02:50;;;;;;;54.33;6.72;;;;;;;;;;5054165;28;20074;-51
2023/06/30 12:05:18;;;;;;;49.15;6.60;;;;;;;;;;5054396;28;20479;-50
2023/06/30 12:07:46;;;;;;;49.47;5.97;;;;;;;;;;5054200;28;20470;-52
2023/06/30 12:10:14;;;;;;;45.85;6.00;;;;;;;;;;5054105;28;20032;-54
2023/06/30 12:12:42;;;;;;;38.08;6.20;;;;;;;;;;5053260;28;20502;-50
2023/06/30 12:15:10;;;;;;;44.35;5.97;;;;;;;;;;5053400;28;20035;-47
2023/06/30 12:17:45;;;;;;;31.42;5.75;;;;;;;;;;5054001;28;20475;-47
2023/06/30 12:20:12;;;;;;;29.35;4.68;;;;;;;;;;5053636;28;20028;-49
2023/06/30 12:22:44;;;;;;;33.38;4.78;;;;;;;;;;5053188;28;20052;-45
2023/06/30 12:25:11;;;;;;;;;;;;;;;;;;5054209;28;20033;-49
2023/06/30 12:27:43;;;;;;;25.42;4.28;;;;;;;;;;5053413;28;20004;-50
2023/06/30 12:30:17;;;;;;;23.50;4.00;;;;;;;;;;5053598;28;20103;-47
2023/06/30 12:32:44;;;;;;;32.75;4.85;;;;;;;;;;5052975;28;20060;-50
2023/06/30 12:35:12;;;;;;;26.80;5.13;;;;;;;;;;5053399;28;20033;-54
2023/06/30 12:37:43;;;;;;;33.22;5.13;;;;;;;;;;5053091;28;20071;-54
2023/06/30 12:40:10;;;;;;;38.35;5.22;;;;;;;;;;5053187;28;20123;-57
2023/06/30 12:42:38;;;;;;;32.38;4.53;;;;;;;;;;5052238;28;20070;-59
2023/06/30 12:45:05;;;;;;;28.75;4.55;;;;;;;;;;5053648;28;20037;-47
2023/06/30 12:47:32;;;;;;;36.03;6.07;;;;;;;;;;5053435;28;20087;-48
2023/06/30 12:49:59;;;;;;;47.90;6.22;;;;;;;;;;5053451;28;20100;-49
2023/06/30 12:52:26;;;;;;;39.90;5.18;;;;;;;;;;5053076;28;20017;-48
2023/06/30 12:54:53;;;;;;;29.17;4.63;;;;;;;;;;5053055;28;20029;-49
2023/06/30 12:57:21;;;;;;;30.55;5.32;;;;;;;;;;5068156;28;20028;-46
2023/06/30 12:59:48;;;;;;;39.33;5.90;;;;;;;;;;5069915;28;20044;-46
2023/06/30 13:02:15;;;;;;;49.03;6.25;;;;;;;;;;5050112;28;20406;-49
2023/06/30 13:04:42;;;;;;;35.65;5.68;;;;;;;;;;5053087;28;20537;-50
2023/06/30 13:07:09;;;;;;;30.10;5.00;;;;;;;;;;5052987;28;20104;-47
2023/06/30 13:09:36;;;;;;;36.08;5.88;;;;;;;;;;5053014;28;20155;-49
2023/06/30 13:12:03;;;;;;;41.17;5.50;;;;;;;;;;5053069;28;20037;-49
2023/06/30 13:14:31;;;;;;;61.15;7.30;;;;;;;;;;5052946;28;20032;-47
2023/06/30 13:16:58;;;;;;;51.80;5.10;;;;;;;;;;5052939;28;20402;-48
2023/06/30 13:19:26;;;;;;;25.75;3.95;;;;;;;;;;5053032;28;20071;-48
2023/06/30 13:21:53;;;;;;;30.70;3.65;;;;;;;;;;5052740;28;20128;-47
2023/06/30 13:24:20;;;;;;;39.15;5.70;;;;;;;;;;5052511;28;20451;-45
2023/06/30 13:26:47;;;;;;;38.60;5.43;;;;;;;;;;5052628;28;20082;-44
2023/06/30 13:29:15;;;;;;;36.08;5.10;;;;;;;;;;5052758;28;20031;-45
2023/06/30 13:31:43;;;;;;;38.25;5.10;;;;;;;;;;5052767;28;20111;-45
2023/06/30 13:34:10;;;;;;;35.58;4.53;;;;;;;;;;5052603;28;20048;-45
2023/06/30 13:36:37;;;;;;;30.45;5.03;;;;;;;;;;5052689;28;20036;-45
2023/06/30 13:39:04;;;;;;;45.40;5.45;;;;;;;;;;5052425;28;20453;-45
2023/06/30 13:41:31;;;;;;;26.70;4.30;;;;;;;;;;5052433;28;20041;-46
2023/06/30 13:43:59;;;;;;;31.15;4.30;;;;;;;;;;5051941;28;20406;-48
2023/06/30 13:46:26;;;;;;;18.63;3.22;;;;;;;;;;5051531;28;20130;-47
2023/06/30 13:48:53;;;;;;;18.35;3.22;;;;;;;;;;5052244;28;20048;-45
2023/06/30 13:51:21;;;;;;;17.70;2.72;;;;;;;;;;5052311;28;20067;-45
2023/06/30 13:53:48;;;;;;;22.35;3.17;;;;;;;;;;5052122;28;20029;-44
2023/06/30 13:56:15;;;;;;;13.07;2.47;;;;;;;;;;5052299;28;20082;-46
2023/06/30 13:58:42;;;;;;;14.45;2.53;;;;;;;;;;5066523;28;20032;-45
2023/06/30 14:01:09;;;;;;;10.63;2.08;;;;;;;;;;5072147;28;20036;-46
2023/06/30 14:03:37;;;;;;;11.23;2.83;;;;;;;;;;5071930;28;20037;-46
2023/06/30 14:06:04;;;;;;;13.82;2.30;;;;;;;;;;5071837;28;20033;-46
2023/06/30 14:08:33;;;;;;;64.65;4.88;;;;;;;;;;5072003;28;20054;-46
2023/06/30 14:11:00;;;;;;;44.45;4.38;;;;;;;;;;5071762;28;20741;-46
2023/06/30 14:13:27;;;;;;;18.70;2.90;;;;;;;;;;5071755;28;20036;-46
2023/06/30 14:15:54;;;;;;;19.63;3.22;;;;;;;;;;5071820;28;20029;-48
2023/06/30 14:18:21;;;;;;;28.70;3.08;;;;;;;;;;5071744;28;20086;-45
2023/06/30 14:20:48;;;;;;;17.15;2.40;;;;;;;;;;5071782;28;20024;-44
2023/06/30 14:23:15;;;;;;;14.02;2.42;;;;;;;;;;5071442;28;20056;-45
2023/06/30 14:25:45;;;;;;;16.80;2.90;;;;;;;;;;5071631;28;20552;-45
2023/06/30 14:28:12;;;;;;;31.45;2.72;;;;;;;;;;5071435;28;20074;-45
2023/06/30 14:30:39;;;;;;;18.83;2.20;;;;;;;;;;5051091;28;20083;-47
2023/06/30 14:33:06;;;;;;;15.93;2.17;;;;;;;;;;5050826;28;20108;-44
2023/06/30 14:35:33;;;;;;;13.38;2.17;;;;;;;;;;5051063;28;20386;-46
2023/06/30 14:38:00;;;;;;;16.35;1.90;;;;;;;;;;5050940;28;20035;-45